sensor_id;sensor_type;location;lat;lon;timestamp;pressure;altitude;pressure_sealevel;temperature;humidity
21742;BME280;11033;47.490;11.116;2024-02-14T00:02:15;93523.09;;;2.32;69.74
21742;BME280;11033;47.490;11.116;2024-02-14T00:04:40;93528.25;;;2.28;70.02
21742;BME280;11033;47.490;11.116;2024-02-14T00:07:05;93529.75;;;2.29;69.82
21742;BME280;11033;47.490;11.116;2024-02-14T00:09:31;93527.41;;;2.24;69.88
21742;BME280;11033;47.490;11.116;2024-02-14T00:11:56;93527.50;;;2.28;69.87
21742;BME280;11033;47.490;11.116;2024-02-14T00:14:21;93536.78;;;2.25;70.08
21742;BME280;11033;47.490;11.116;2024-02-14T00:16:46;93524.44;;;2.26;69.93
21742;BME280;11033;47.490;11.116;2024-02-14T00:19:12;93523.28;;;2.23;69.84
21742;BME280;11033;47.490;11.116;2024-02-14T00:21:37;93527.34;;;2.21;69.80
21742;BME280;11033;47.490;11.116;2024-02-14T00:24:03;93526.22;;;2.22;70.51
21742;BME280;11033;47.490;11.116;2024-02-14T00:26:29;93528.00;;;2.18;69.80
21742;BME280;11033;47.490;11.116;2024-02-14T00:28:55;93530.63;;;2.18;69.91
21742;BME280;11033;47.490;11.116;2024-02-14T00:31:20;93518.22;;;2.15;70.53
21742;BME280;11033;47.490;11.116;2024-02-14T00:33:46;93526.22;;;2.22;69.63
21742;BME280;11033;47.490;11.116;2024-02-14T00:36:11;93527.34;;;2.21;69.34
21742;BME280;11033;47.490;11.116;2024-02-14T00:38:36;93530.28;;;2.19;70.02
21742;BME280;11033;47.490;11.116;2024-02-14T00:41:02;93529.97;;;2.21;69.28
21742;BME280;11033;47.490;11.116;2024-02-14T00:43:27;93527.59;;;2.16;70.82
21742;BME280;11033;47.490;11.116;2024-02-14T00:45:53;93540.94;;;2.11;71.41
21742;BME280;11033;47.490;11.116;2024-02-14T00:48:18;93541.78;;;2.15;70.22
21742;BME280;11033;47.490;11.116;2024-02-14T00:50:43;93544.06;;;2.16;71.46
21742;BME280;11033;47.490;11.116;2024-02-14T00:53:09;93540.94;;;2.11;72.20
21742;BME280;11033;47.490;11.116;2024-02-14T00:55:34;93540.69;;;2.16;72.28
21742;BME280;11033;47.490;11.116;2024-02-14T00:58:00;93544.13;;;2.20;70.63
21742;BME280;11033;47.490;11.116;2024-02-14T01:00:25;93542.63;;;2.19;71.16
21742;BME280;11033;47.490;11.116;2024-02-14T01:02:50;93547.16;;;2.22;70.53
21742;BME280;11033;47.490;11.116;2024-02-14T01:05:16;93543.97;;;2.28;69.85
21742;BME280;11033;47.490;11.116;2024-02-14T01:07:42;93547.31;;;2.29;69.26
21742;BME280;11033;47.490;11.116;2024-02-14T01:10:07;93549.53;;;2.27;69.54
21742;BME280;11033;47.490;11.116;2024-02-14T01:12:33;93555.53;;;2.27;69.84
21742;BME280;11033;47.490;11.116;2024-02-14T01:14:58;93559.84;;;2.20;70.71
21742;BME280;11033;47.490;11.116;2024-02-14T01:17:23;93558.75;;;2.21;70.10
21742;BME280;11033;47.490;11.116;2024-02-14T01:19:50;93554.84;;;2.15;70.47
21742;BME280;11033;47.490;11.116;2024-02-14T01:22:15;93558.16;;;2.12;71.36
21742;BME280;11033;47.490;11.116;2024-02-14T01:24:43;93560.53;;;2.17;70.38
21742;BME280;11033;47.490;11.116;2024-02-14T01:27:08;93565.06;;;2.20;69.61
21742;BME280;11033;47.490;11.116;2024-02-14T01:29:34;93559.84;;;2.20;69.78
21742;BME280;11033;47.490;11.116;2024-02-14T01:31:59;93562.28;;;2.13;70.43
21742;BME280;11033;47.490;11.116;2024-02-14T01:34:25;93560.53;;;2.17;69.18
21742;BME280;11033;47.490;11.116;2024-02-14T01:36:50;93559.69;;;2.13;69.58
21742;BME280;11033;47.490;11.116;2024-02-14T01:39:15;93567.19;;;2.14;69.58
21742;BME280;11033;47.490;11.116;2024-02-14T01:41:46;93564.16;;;2.12;69.61
21742;BME280;11033;47.490;11.116;2024-02-14T01:44:14;93564.91;;;2.13;69.68
21742;BME280;11033;47.490;11.116;2024-02-14T01:46:39;93565.31;;;2.15;70.71
21742;BME280;11033;47.490;11.116;2024-02-14T01:49:05;93561.19;;;2.14;70.35
21742;BME280;11033;47.490;11.116;2024-02-14T01:51:31;93566.59;;;2.05;70.60
21742;BME280;11033;47.490;11.116;2024-02-14T01:53:57;93565.16;;;2.08;71.10
21742;BME280;11033;47.490;11.116;2024-02-14T01:56:24;93565.91;;;2.08;71.10
21742;BME280;11033;47.490;11.116;2024-02-14T01:58:50;93578.16;;;2.04;71.45
21742;BME280;11033;47.490;11.116;2024-02-14T02:01:17;93568.00;;;2.03;71.49
21742;BME280;11033;47.490;11.116;2024-02-14T02:03:43;93575.22;;;2.06;71.20
21742;BME280;11033;47.490;11.116;2024-02-14T02:06:08;93563.72;;;2.10;70.38
21742;BME280;11033;47.490;11.116;2024-02-14T02:08:34;93568.44;;;2.05;70.56
21742;BME280;11033;47.490;11.116;2024-02-14T02:10:59;93569.53;;;2.04;70.95
21742;BME280;11033;47.490;11.116;2024-02-14T02:13:24;93574.19;;;2.10;71.19
21742;BME280;11033;47.490;11.116;2024-02-14T02:15:51;93570.06;;;2.09;70.67
21742;BME280;11033;47.490;11.116;2024-02-14T02:18:18;93566.41;;;2.14;69.50
21742;BME280;11033;47.490;11.116;2024-02-14T02:20:44;93575.28;;;2.09;70.56
21742;BME280;11033;47.490;11.116;2024-02-14T02:23:12;93579.94;;;2.16;69.55
21742;BME280;11033;47.490;11.116;2024-02-14T02:25:40;93575.53;;;2.20;68.63
21742;BME280;11033;47.490;11.116;2024-02-14T02:28:05;93582.88;;;2.14;69.14
21742;BME280;11033;47.490;11.116;2024-02-14T02:30:31;93579.41;;;2.10;69.68
21742;BME280;11033;47.490;11.116;2024-02-14T02:32:56;93585.41;;;2.11;69.76
21742;BME280;11033;47.490;11.116;2024-02-14T02:35:21;93577.47;;;2.07;70.14
21742;BME280;11033;47.490;11.116;2024-02-14T02:37:47;93580.44;;;2.06;69.90
21742;BME280;11033;47.490;11.116;2024-02-14T02:40:13;93579.25;;;2.03;69.93
21742;BME280;11033;47.490;11.116;2024-02-14T02:42:39;93574.78;;;2.04;69.02
21742;BME280;11033;47.490;11.116;2024-02-14T02:45:05;93568.13;;;2.06;69.24
21742;BME280;11033;47.490;11.116;2024-02-14T02:47:31;93575.22;;;2.06;69.14
21742;BME280;11033;47.490;11.116;2024-02-14T02:49:57;93573.69;;;2.05;68.68
21742;BME280;11033;47.490;11.116;2024-02-14T02:52:26;93570.63;;;2.03;68.66
21742;BME280;11033;47.490;11.116;2024-02-14T02:54:53;93581.19;;;1.90;69.87
21742;BME280;11033;47.490;11.116;2024-02-14T02:57:18;93575.53;;;1.88;68.87
21742;BME280;11033;47.490;11.116;2024-02-14T02:59:44;93576.72;;;1.91;68.60
21742;BME280;11033;47.490;11.116;2024-02-14T03:02:11;93590.22;;;1.93;67.86
21742;BME280;11033;47.490;11.116;2024-02-14T03:04:38;93586.75;;;1.89;67.97
21742;BME280;11033;47.490;11.116;2024-02-14T03:07:03;93582.63;;;1.88;68.38
21742;BME280;11033;47.490;11.116;2024-02-14T03:09:32;93589.09;;;1.78;69.07
21742;BME280;11033;47.490;11.116;2024-02-14T03:11:57;93581.59;;;1.77;69.41
21742;BME280;11033;47.490;11.116;2024-02-14T03:14:23;93581.34;;;1.82;68.30
21742;BME280;11033;47.490;11.116;2024-02-14T03:16:48;93592.72;;;1.74;69.06
21742;BME280;11033;47.490;11.116;2024-02-14T03:19:14;93588.66;;;1.76;68.78
21742;BME280;11033;47.490;11.116;2024-02-14T03:21:39;93582.03;;;1.79;68.72
21742;BME280;11033;47.490;11.116;2024-02-14T03:24:05;93586.06;;;1.76;68.78
21742;BME280;11033;47.490;11.116;2024-02-14T03:26:33;93577.47;;;1.76;69.01
21742;BME280;11033;47.490;11.116;2024-02-14T03:29:00;93574.41;;;1.74;68.69
21742;BME280;11033;47.490;11.116;2024-02-14T03:31:25;93581.50;;;1.73;68.78
21742;BME280;11033;47.490;11.116;2024-02-14T03:33:50;93582.50;;;1.69;69.65
21742;BME280;11033;47.490;11.116;2024-02-14T03:36:16;93578.78;;;1.70;69.10
21742;BME280;11033;47.490;11.116;2024-02-14T03:38:41;93578.50;;;1.43;71.33
21742;BME280;11033;47.490;11.116;2024-02-14T03:41:06;93581.16;;;1.59;70.73
21742;BME280;11033;47.490;11.116;2024-02-14T03:43:32;93578.72;;;1.66;69.46
21742;BME280;11033;47.490;11.116;2024-02-14T03:45:58;93582.00;;;1.63;69.69
21742;BME280;11033;47.490;11.116;2024-02-14T03:48:23;93586.28;;;1.56;70.08
21742;BME280;11033;47.490;11.116;2024-02-14T03:50:49;93589.56;;;1.53;69.37
21742;BME280;11033;47.490;11.116;2024-02-14T03:53:14;93588.13;;;1.55;70.97
21742;BME280;11033;47.490;11.116;2024-02-14T03:55:40;93585.78;;;1.66;68.73
21742;BME280;11033;47.490;11.116;2024-02-14T03:58:05;93580.47;;;1.62;69.20
21742;BME280;11033;47.490;11.116;2024-02-14T04:00:31;93578.63;;;1.63;69.24
21742;BME280;11033;47.490;11.116;2024-02-14T04:02:57;93586.28;;;1.56;70.07
21742;BME280;11033;47.490;11.116;2024-02-14T04:05:25;93584.63;;;1.63;68.96
21742;BME280;11033;47.490;11.116;2024-02-14T04:07:52;93587.91;;;1.60;69.41
21742;BME280;11033;47.490;11.116;2024-02-14T04:10:18;93593.22;;;1.64;69.17
21742;BME280;11033;47.490;11.116;2024-02-14T04:12:43;93592.88;;;1.65;68.69
21742;BME280;11033;47.490;11.116;2024-02-14T04:15:09;93595.25;;;1.70;69.08
21742;BME280;11033;47.490;11.116;2024-02-14T04:17:34;93592.97;;;1.69;68.71
21742;BME280;11033;47.490;11.116;2024-02-14T04:19:59;93578.47;;;1.71;69.12
21742;BME280;11033;47.490;11.116;2024-02-14T04:22:25;93576.63;;;1.72;68.70
21742;BME280;11033;47.490;11.116;2024-02-14T04:24:50;93574.78;;;1.72;68.28
21742;BME280;11033;47.490;11.116;2024-02-14T04:27:15;93569.19;;;1.74;68.82
21742;BME280;11033;47.490;11.116;2024-02-14T04:29:45;93568.44;;;1.73;68.42
21742;BME280;11033;47.490;11.116;2024-02-14T04:32:10;93572.34;;;1.52;70.00
21742;BME280;11033;47.490;11.116;2024-02-14T04:34:35;93571.53;;;1.63;69.55
21742;BME280;11033;47.490;11.116;2024-02-14T04:37:03;93573.66;;;1.73;68.62
21742;BME280;11033;47.490;11.116;2024-02-14T04:39:35;93573.75;;;1.77;69.31
21742;BME280;11033;47.490;11.116;2024-02-14T04:42:00;93573.09;;;1.80;67.92
21742;BME280;11033;47.490;11.116;2024-02-14T04:44:26;93577.97;;;1.81;69.04
21742;BME280;11033;47.490;11.116;2024-02-14T04:46:51;93571.66;;;1.82;68.33
21742;BME280;11033;47.490;11.116;2024-02-14T04:49:17;93561.28;;;1.86;67.99
21742;BME280;11033;47.490;11.116;2024-02-14T04:51:42;93563.97;;;1.89;67.75
21742;BME280;11033;47.490;11.116;2024-02-14T04:54:07;93567.75;;;1.92;68.19
21742;BME280;11033;47.490;11.116;2024-02-14T04:56:33;93566.09;;;2.00;68.49
21742;BME280;11033;47.490;11.116;2024-02-14T04:58:58;93571.22;;;2.12;68.13
21742;BME280;11033;47.490;11.116;2024-02-14T05:01:24;93566.25;;;2.07;67.60
21742;BME280;11033;47.490;11.116;2024-02-14T05:03:49;93567.69;;;2.04;68.13
21742;BME280;11033;47.490;11.116;2024-02-14T05:06:15;93565.59;;;2.10;67.78
21742;BME280;11033;47.490;11.116;2024-02-14T05:08:40;93557.06;;;1.97;68.82
21742;BME280;11033;47.490;11.116;2024-02-14T05:11:05;93551.31;;;2.07;68.30
21742;BME280;11033;47.490;11.116;2024-02-14T05:13:30;93552.50;;;2.10;67.87
21742;BME280;11033;47.490;11.116;2024-02-14T05:15:56;93553.31;;;2.14;67.39
21742;BME280;11033;47.490;11.116;2024-02-14T05:18:22;93552.50;;;2.10;68.88
21742;BME280;11033;47.490;11.116;2024-02-14T05:20:47;93557.91;;;2.17;67.97
21742;BME280;11033;47.490;11.116;2024-02-14T05:23:12;93556.06;;;2.17;67.97
21742;BME280;11033;47.490;11.116;2024-02-14T05:25:38;93557.91;;;2.17;67.64
21742;BME280;11033;47.490;11.116;2024-02-14T05:28:05;93569.63;;;2.23;67.51
21742;BME280;11033;47.490;11.116;2024-02-14T05:30:30;93565.47;;;2.22;67.52
21742;BME280;11033;47.490;11.116;2024-02-14T05:32:56;93564.81;;;2.25;67.02
21742;BME280;11033;47.490;11.116;2024-02-14T05:35:22;93573.78;;;2.24;66.96
21742;BME280;11033;47.490;11.116;2024-02-14T05:37:47;93567.78;;;2.23;67.72
21742;BME280;11033;47.490;11.116;2024-02-14T05:40:15;93573.50;;;2.29;66.93
21742;BME280;11033;47.490;11.116;2024-02-14T05:42:41;93576.38;;;2.24;67.84
21742;BME280;11033;47.490;11.116;2024-02-14T05:45:06;93575.47;;;2.32;67.47
21742;BME280;11033;47.490;11.116;2024-02-14T05:47:35;93580.25;;;2.30;67.28
21742;BME280;11033;47.490;11.116;2024-02-14T05:50:00;93575.03;;;2.30;67.08
21742;BME280;11033;47.490;11.116;2024-02-14T05:52:25;93573.94;;;2.31;66.94
21742;BME280;11033;47.490;11.116;2024-02-14T05:54:50;93566.91;;;2.35;66.53
21742;BME280;11033;47.490;11.116;2024-02-14T05:57:16;93566.47;;;2.33;66.96
21742;BME280;11033;47.490;11.116;2024-02-14T05:59:41;93568.38;;;2.32;66.93
21742;BME280;11033;47.490;11.116;2024-02-14T06:02:06;93566.84;;;2.31;67.04
21742;BME280;11033;47.490;11.116;2024-02-14T06:04:33;93567.53;;;2.28;67.33
21742;BME280;11033;47.490;11.116;2024-02-14T06:06:58;93565.00;;;2.32;66.87
21742;BME280;11033;47.490;11.116;2024-02-14T06:09:23;93574.63;;;2.28;67.20
21742;BME280;11033;47.490;11.116;2024-02-14T06:11:49;93578.00;;;2.28;66.65
21742;BME280;11033;47.490;11.116;2024-02-14T06:14:15;93578.72;;;2.29;66.13
21742;BME280;11033;47.490;11.116;2024-02-14T06:16:41;93576.78;;;2.26;66.39
21742;BME280;11033;47.490;11.116;2024-02-14T06:19:06;93588.38;;;2.25;66.31
21742;BME280;11033;47.490;11.116;2024-02-14T06:21:31;93588.28;;;2.21;66.32
21742;BME280;11033;47.490;11.116;2024-02-14T06:23:58;93588.28;;;2.21;66.51
21742;BME280;11033;47.490;11.116;2024-02-14T06:26:24;93590.31;;;2.28;66.02
21742;BME280;11033;47.490;11.116;2024-02-14T06:28:49;93592.94;;;2.28;66.22
21742;BME280;11033;47.490;11.116;2024-02-14T06:31:19;93592.56;;;2.29;66.33
21742;BME280;11033;47.490;11.116;2024-02-14T06:33:44;93595.56;;;2.28;66.23
21742;BME280;11033;47.490;11.116;2024-02-14T06:36:09;93598.00;;;2.21;66.46
21742;BME280;11033;47.490;11.116;2024-02-14T06:38:35;93614.63;;;2.28;65.69
21742;BME280;11033;47.490;11.116;2024-02-14T06:41:00;93615.72;;;2.27;66.34
21742;BME280;11033;47.490;11.116;2024-02-14T06:43:26;93620.53;;;2.25;65.79
21742;BME280;11033;47.490;11.116;2024-02-14T06:45:51;93630.44;;;2.32;66.76
21742;BME280;11033;47.490;11.116;2024-02-14T06:48:16;93627.53;;;2.37;65.62
21742;BME280;11033;47.490;11.116;2024-02-14T06:50:46;93629.75;;;2.35;66.57
21742;BME280;11033;47.490;11.116;2024-02-14T06:53:11;93632.44;;;2.38;65.08
21742;BME280;11033;47.490;11.116;2024-02-14T06:55:36;93636.66;;;2.43;66.18
21742;BME280;11033;47.490;11.116;2024-02-14T06:58:01;93646.38;;;2.42;66.10
21742;BME280;11033;47.490;11.116;2024-02-14T07:00:27;93651.69;;;2.46;67.26
21742;BME280;11033;47.490;11.116;2024-02-14T07:02:53;93645.09;;;2.52;66.22
21742;BME280;11033;47.490;11.116;2024-02-14T07:05:19;93649.66;;;2.55;66.18
21742;BME280;11033;47.490;11.116;2024-02-14T07:07:44;93646.38;;;2.58;65.64
21742;BME280;11033;47.490;11.116;2024-02-14T07:10:10;93648.31;;;2.61;65.41
21742;BME280;11033;47.490;11.116;2024-02-14T07:12:35;93652.88;;;2.64;65.50
21742;BME280;11033;47.490;11.116;2024-02-14T07:15:05;93651.09;;;2.68;65.32
21742;BME280;11033;47.490;11.116;2024-02-14T07:17:31;93653.03;;;2.71;64.53
21742;BME280;11033;47.490;11.116;2024-02-14T07:19:56;93647.78;;;2.71;64.51
21742;BME280;11033;47.490;11.116;2024-02-14T07:22:21;93646.44;;;2.77;64.29
21742;BME280;11033;47.490;11.116;2024-02-14T07:24:47;93651.75;;;2.81;64.65
21742;BME280;11033;47.490;11.116;2024-02-14T07:27:14;93654.03;;;2.82;63.91
21742;BME280;11033;47.490;11.116;2024-02-14T07:29:40;93658.78;;;2.77;62.44
21742;BME280;11033;47.490;11.116;2024-02-14T07:32:05;93667.78;;;2.95;62.45
21742;BME280;11033;47.490;11.116;2024-02-14T07:34:33;93674.22;;;2.98;62.95
21742;BME280;11033;47.490;11.116;2024-02-14T07:36:59;93670.97;;;3.04;62.39
21742;BME280;11033;47.490;11.116;2024-02-14T07:39:24;93679.75;;;3.12;61.91
21742;BME280;11033;47.490;11.116;2024-02-14T07:41:51;93689.16;;;3.13;63.11
21742;BME280;11033;47.490;11.116;2024-02-14T07:44:17;93694.81;;;3.15;62.96
21742;BME280;11033;47.490;11.116;2024-02-14T07:46:42;93702.41;;;3.20;63.01
21742;BME280;11033;47.490;11.116;2024-02-14T07:49:08;93704.47;;;3.30;62.75
21742;BME280;11033;47.490;11.116;2024-02-14T07:51:35;93704.28;;;3.38;62.34
21742;BME280;11033;47.490;11.116;2024-02-14T07:54:03;93711.53;;;3.45;61.54
21742;BME280;11033;47.490;11.116;2024-02-14T07:56:29;93714.59;;;3.47;61.39
21742;BME280;11033;47.490;11.116;2024-02-14T07:58:54;93705.78;;;3.55;62.53
21742;BME280;11033;47.490;11.116;2024-02-14T08:01:20;93683.06;;;3.63;62.70
21742;BME280;11033;47.490;11.116;2024-02-14T08:03:45;93693.34;;;3.71;62.54
21742;BME280;11033;47.490;11.116;2024-02-14T08:06:11;93690.81;;;3.75;61.25
21742;BME280;11033;47.490;11.116;2024-02-14T08:08:36;93678.50;;;3.79;62.60
21742;BME280;11033;47.490;11.116;2024-02-14T08:11:02;93687.69;;;3.88;62.27
21742;BME280;11033;47.490;11.116;2024-02-14T08:13:27;93692.94;;;3.88;61.21
21742;BME280;11033;47.490;11.116;2024-02-14T08:15:54;93677.72;;;3.98;61.21
21742;BME280;11033;47.490;11.116;2024-02-14T08:18:19;93673.75;;;4.04;60.91
21742;BME280;11033;47.490;11.116;2024-02-14T08:20:44;93665.28;;;4.14;61.15
21742;BME280;11033;47.490;11.116;2024-02-14T08:23:09;93663.91;;;4.20;60.98
21742;BME280;11033;47.490;11.116;2024-02-14T08:25:35;93665.00;;;4.19;60.29
21742;BME280;11033;47.490;11.116;2024-02-14T08:28:00;93660.63;;;4.26;61.02
21742;BME280;11033;47.490;11.116;2024-02-14T08:30:25;93666.06;;;4.37;60.88
21742;BME280;11033;47.490;11.116;2024-02-14T08:32:52;93671.78;;;4.43;60.50
21742;BME280;11033;47.490;11.116;2024-02-14T08:35:17;93679.38;;;4.48;61.64
21742;BME280;11033;47.490;11.116;2024-02-14T08:37:42;93682.44;;;4.50;59.86
21742;BME280;11033;47.490;11.116;2024-02-14T08:40:08;93679.97;;;4.60;60.09
21742;BME280;11033;47.490;11.116;2024-02-14T08:42:34;93683.75;;;4.63;60.55
21742;BME280;11033;47.490;11.116;2024-02-14T08:45:00;93689.00;;;4.63;60.53
21742;BME280;11033;47.490;11.116;2024-02-14T08:47:26;93693.66;;;4.73;60.51
21742;BME280;11033;47.490;11.116;2024-02-14T08:49:51;93698.69;;;4.81;59.36
21742;BME280;11033;47.490;11.116;2024-02-14T08:52:17;93690.66;;;4.71;59.40
21742;BME280;11033;47.490;11.116;2024-02-14T08:54:43;93696.88;;;4.85;59.29
21742;BME280;11033;47.490;11.116;2024-02-14T08:57:09;93681.22;;;4.93;58.58
21742;BME280;11033;47.490;11.116;2024-02-14T08:59:34;93666.66;;;4.99;58.92
21742;BME280;11033;47.490;11.116;2024-02-14T09:01:59;93677.69;;;5.08;59.02
21742;BME280;11033;47.490;11.116;2024-02-14T09:04:25;93671.81;;;5.18;59.26
21742;BME280;11033;47.490;11.116;2024-02-14T09:06:52;93672.22;;;5.20;59.32
21742;BME280;11033;47.490;11.116;2024-02-14T09:09:17;93652.09;;;5.31;58.78
21742;BME280;11033;47.490;11.116;2024-02-14T09:11:44;93660.06;;;5.38;59.00
21742;BME280;11033;47.490;11.116;2024-02-14T09:14:11;93670.63;;;5.42;57.47
21742;BME280;11033;47.490;11.116;2024-02-14T09:16:36;93663.69;;;5.56;57.20
21742;BME280;11033;47.490;11.116;2024-02-14T09:19:02;93670.91;;;5.63;57.13
21742;BME280;11033;47.490;11.116;2024-02-14T09:21:28;93672.97;;;5.76;55.81
21742;BME280;11033;47.490;11.116;2024-02-14T09:23:54;93661.59;;;5.99;56.78
21742;BME280;11033;47.490;11.116;2024-02-14T09:26:20;93657.91;;;6.07;58.47
21742;BME280;11033;47.490;11.116;2024-02-14T09:28:45;93651.19;;;6.13;56.86
21742;BME280;11033;47.490;11.116;2024-02-14T09:31:10;93652.75;;;6.17;55.21
21742;BME280;11033;47.490;11.116;2024-02-14T09:33:37;93652.50;;;6.29;55.97
21742;BME280;11033;47.490;11.116;2024-02-14T09:36:04;93660.53;;;6.44;56.47
21742;BME280;11033;47.490;11.116;2024-02-14T09:38:30;93656.88;;;6.55;55.61
21742;BME280;11033;47.490;11.116;2024-02-14T09:41:00;93650.16;;;6.65;56.50
21742;BME280;11033;47.490;11.116;2024-02-14T09:43:40;93643.44;;;6.71;53.91
21742;BME280;11033;47.490;11.116;2024-02-14T09:46:08;93635.22;;;6.79;52.87
21742;BME280;11033;47.490;11.116;2024-02-14T09:48:34;93642.84;;;6.92;52.66
21742;BME280;11033;47.490;11.116;2024-02-14T09:51:00;93651.59;;;7.06;52.91
21742;BME280;11033;47.490;11.116;2024-02-14T09:53:25;93651.09;;;7.48;53.89
21742;BME280;11033;47.490;11.116;2024-02-14T09:55:51;93661.81;;;7.84;54.44
21742;BME280;11033;47.490;11.116;2024-02-14T09:58:17;93667.63;;;8.21;54.72
21742;BME280;11033;47.490;11.116;2024-02-14T10:00:43;93671.88;;;8.50;51.48
21742;BME280;11033;47.490;11.116;2024-02-14T10:03:08;93679.09;;;8.99;51.67
21742;BME280;11033;47.490;11.116;2024-02-14T10:05:34;93673.00;;;9.13;47.79
21742;BME280;11033;47.490;11.116;2024-02-14T10:08:00;93669.16;;;9.67;48.27
21742;BME280;11033;47.490;11.116;2024-02-14T10:10:26;93675.44;;;10.05;46.46
21742;BME280;11033;47.490;11.116;2024-02-14T10:12:54;93655.00;;;10.75;47.51
21742;BME280;11033;47.490;11.116;2024-02-14T10:15:20;93660.56;;;10.94;43.76
21742;BME280;11033;47.490;11.116;2024-02-14T10:17:45;93670.06;;;11.33;45.84
21742;BME280;11033;47.490;11.116;2024-02-14T10:20:11;93668.91;;;11.78;44.07
21742;BME280;11033;47.490;11.116;2024-02-14T10:22:37;93658.03;;;12.56;43.37
21742;BME280;11033;47.490;11.116;2024-02-14T10:25:04;93657.09;;;12.70;42.39
21742;BME280;11033;47.490;11.116;2024-02-14T10:27:33;93658.63;;;13.44;40.13
21742;BME280;11033;47.490;11.116;2024-02-14T10:29:59;93658.34;;;13.16;39.16
21742;BME280;11033;47.490;11.116;2024-02-14T10:32:25;93654.69;;;13.92;39.11
21742;BME280;11033;47.490;11.116;2024-02-14T10:34:50;93650.75;;;13.14;37.17
21742;BME280;11033;47.490;11.116;2024-02-14T10:37:17;93657.03;;;13.90;39.16
21742;BME280;11033;47.490;11.116;2024-02-14T10:39:45;93655.72;;;14.73;39.62
21742;BME280;11033;47.490;11.116;2024-02-14T10:42:12;93648.31;;;14.81;39.57
21742;BME280;11033;47.490;11.116;2024-02-14T10:44:37;93659.13;;;14.58;37.87
21742;BME280;11033;47.490;11.116;2024-02-14T10:47:05;93654.81;;;14.80;37.55
21742;BME280;11033;47.490;11.116;2024-02-14T10:49:32;93653.47;;;13.77;36.35
21742;BME280;11033;47.490;11.116;2024-02-14T10:52:02;93641.69;;;13.31;36.92
21742;BME280;11033;47.490;11.116;2024-02-14T10:54:34;93647.63;;;13.19;39.74
21742;BME280;11033;47.490;11.116;2024-02-14T10:57:04;93640.72;;;14.43;39.70
21742;BME280;11033;47.490;11.116;2024-02-14T10:59:32;93643.88;;;15.23;38.93
21742;BME280;11033;47.490;11.116;2024-02-14T11:01:58;93633.56;;;15.70;38.00
21742;BME280;11033;47.490;11.116;2024-02-14T11:04:24;93641.59;;;15.54;36.49
21742;BME280;11033;47.490;11.116;2024-02-14T11:06:53;93633.31;;;15.93;35.67
21742;BME280;11033;47.490;11.116;2024-02-14T11:09:19;93633.47;;;16.15;37.21
21742;BME280;11033;47.490;11.116;2024-02-14T11:11:45;93632.59;;;15.15;35.18
21742;BME280;11033;47.490;11.116;2024-02-14T11:14:15;93634.66;;;15.56;36.36
21742;BME280;11033;47.490;11.116;2024-02-14T11:16:40;93631.88;;;16.17;34.77
21742;BME280;11033;47.490;11.116;2024-02-14T11:19:09;93631.00;;;15.79;33.92
21742;BME280;11033;47.490;11.116;2024-02-14T11:21:42;93638.09;;;16.14;36.45
21742;BME280;11033;47.490;11.116;2024-02-14T11:24:13;93635.56;;;15.94;36.70
21742;BME280;11033;47.490;11.116;2024-02-14T11:26:51;93630.09;;;16.52;35.45
21742;BME280;11033;47.490;11.116;2024-02-14T11:29:17;93640.94;;;16.49;35.84
21742;BME280;11033;47.490;11.116;2024-02-14T11:31:47;93628.97;;;16.66;36.59
21742;BME280;11033;47.490;11.116;2024-02-14T11:34:16;93623.16;;;16.80;36.31
21742;BME280;11033;47.490;11.116;2024-02-14T11:36:43;93625.41;;;16.02;36.46
21742;BME280;11033;47.490;11.116;2024-02-14T11:39:09;93622.66;;;16.18;35.79
21742;BME280;11033;47.490;11.116;2024-02-14T11:41:34;93617.44;;;16.40;35.69
21742;BME280;11033;47.490;11.116;2024-02-14T11:44:04;93615.88;;;16.01;36.17
21742;BME280;11033;47.490;11.116;2024-02-14T11:46:31;93616.28;;;16.54;36.23
21742;BME280;11033;47.490;11.116;2024-02-14T11:48:58;93621.00;;;16.87;36.45
21742;BME280;11033;47.490;11.116;2024-02-14T11:51:27;93606.03;;;17.37;37.24
21742;BME280;11033;47.490;11.116;2024-02-14T11:53:52;93608.47;;;17.57;35.49
21742;BME280;11033;47.490;11.116;2024-02-14T11:56:18;93604.28;;;17.77;35.43
21742;BME280;11033;47.490;11.116;2024-02-14T11:58:43;93611.66;;;17.86;34.43
21742;BME280;11033;47.490;11.116;2024-02-14T12:01:08;93600.06;;;17.89;35.97
21742;BME280;11033;47.490;11.116;2024-02-14T12:03:35;93594.59;;;18.23;36.23
21742;BME280;11033;47.490;11.116;2024-02-14T12:06:01;93590.16;;;18.29;35.22
21742;BME280;11033;47.490;11.116;2024-02-14T12:08:28;93589.91;;;18.37;36.34
21742;BME280;11033;47.490;11.116;2024-02-14T12:10:53;93581.72;;;18.18;34.67
21742;BME280;11033;47.490;11.116;2024-02-14T12:13:21;93585.38;;;18.24;34.83
21742;BME280;11033;47.490;11.116;2024-02-14T12:15:51;93578.69;;;18.38;34.91
21742;BME280;11033;47.490;11.116;2024-02-14T12:18:20;93584.47;;;18.27;35.62
21742;BME280;11033;47.490;11.116;2024-02-14T12:20:46;93583.66;;;17.87;34.27
21742;BME280;11033;47.490;11.116;2024-02-14T12:23:15;93577.19;;;18.59;34.79
21742;BME280;11033;47.490;11.116;2024-02-14T12:25:44;93576.53;;;18.24;33.18
21742;BME280;11033;47.490;11.116;2024-02-14T12:28:18;93575.38;;;18.96;34.43
21742;BME280;11033;47.490;11.116;2024-02-14T12:33:23;93575.03;;;20.48;33.05
21742;BME280;11033;47.490;11.116;2024-02-14T12:35:49;93563.44;;;21.70;32.40
21742;BME280;11033;47.490;11.116;2024-02-14T12:38:16;93567.16;;;21.73;30.69
21742;BME280;11033;47.490;11.116;2024-02-14T12:40:42;93570.41;;;23.29;28.48
21742;BME280;11033;47.490;11.116;2024-02-14T12:43:13;93560.69;;;24.54;29.68
21742;BME280;11033;47.490;11.116;2024-02-14T12:45:39;93564.06;;;24.75;26.49
21742;BME280;11033;47.490;11.116;2024-02-14T12:48:06;93551.88;;;26.15;27.18
21742;BME280;11033;47.490;11.116;2024-02-14T12:50:33;93552.34;;;25.96;25.75
21742;BME280;11033;47.490;11.116;2024-02-14T12:53:00;93548.91;;;26.02;27.20
21742;BME280;11033;47.490;11.116;2024-02-14T12:55:25;93549.72;;;26.91;26.20